Danbury, New Hampshire
Current Conditions -  °F | °C
As of 6:35 AM on Saturday 20 Dec 2014 (Local Time) from K1P1 Reporting Station
Clear Clear  
Wind Chill: -12°   Ceiling: Unl
Heat Index: -8°   Visibility: 10mi
Dew Point: -8°   Wind: 6mph
Humidity: 98%   Direction: 300°WNW
Pressure: 30.26"   Gusts: NA
Location:  43.53°N, 71.86°W
Report Text: K1P1 201135Z AUTO 30005KT 10SM CLR M07/M08 A3026 RMK AO2 T10751078
Loading
Personal Weather Stations






























Interactive Weather Map New forecast layout! Learn more

10-Day Weather Forecast

Advertisements
Track Severe Weather on mobile